sensor_id;sensor_type;location;lat;lon;timestamp;pressure;altitude;pressure_sealevel;temperature;humidity
11339;BME280;5724;42.684;23.252;2022-07-25T00:01:35;94439.97;;;22.84;69.84
11339;BME280;5724;42.684;23.252;2022-07-25T00:04:00;94435.97;;;22.85;70.31
11339;BME280;5724;42.684;23.252;2022-07-25T00:06:26;94437.47;;;22.90;70.71
11339;BME280;5724;42.684;23.252;2022-07-25T00:08:51;94429.84;;;22.74;70.80
11339;BME280;5724;42.684;23.252;2022-07-25T00:11:17;94433.25;;;22.81;70.29
11339;BME280;5724;42.684;23.252;2022-07-25T00:13:42;94441.97;;;22.83;70.45
11339;BME280;5724;42.684;23.252;2022-07-25T00:16:08;94438.75;;;22.69;71.66
11339;BME280;5724;42.684;23.252;2022-07-25T00:18:33;94444.63;;;22.54;72.34
11339;BME280;5724;42.684;23.252;2022-07-25T00:20:59;94441.22;;;22.47;72.56
11339;BME280;5724;42.684;23.252;2022-07-25T00:23:24;94438.28;;;22.54;72.67
11339;BME280;5724;42.684;23.252;2022-07-25T00:25:50;94430.28;;;22.56;72.55
11339;BME280;5724;42.684;23.252;2022-07-25T00:28:15;94419.06;;;22.60;72.84
11339;BME280;5724;42.684;23.252;2022-07-25T00:30:41;94423.66;;;22.66;74.01
11339;BME280;5724;42.684;23.252;2022-07-25T00:33:06;94433.97;;;22.69;74.26
11339;BME280;5724;42.684;23.252;2022-07-25T00:35:32;94421.13;;;22.39;72.36
11339;BME280;5724;42.684;23.252;2022-07-25T00:37:58;94423.41;;;22.44;72.74
11339;BME280;5724;42.684;23.252;2022-07-25T00:40:23;94420.19;;;22.46;72.06
11339;BME280;5724;42.684;23.252;2022-07-25T00:42:49;94412.03;;;22.19;72.86
11339;BME280;5724;42.684;23.252;2022-07-25T00:45:15;94406.47;;;22.19;73.09
11339;BME280;5724;42.684;23.252;2022-07-25T00:47:41;94390.16;;;22.01;74.57
11339;BME280;5724;42.684;23.252;2022-07-25T00:50:07;94376.34;;;21.78;75.02
11339;BME280;5724;42.684;23.252;2022-07-25T00:52:33;94412.34;;;22.05;75.56
11339;BME280;5724;42.684;23.252;2022-07-25T00:54:59;94409.19;;;22.03;75.66
11339;BME280;5724;42.684;23.252;2022-07-25T00:57:25;94410.34;;;22.05;76.20
11339;BME280;5724;42.684;23.252;2022-07-25T00:59:50;94412.66;;;22.10;75.92
11339;BME280;5724;42.684;23.252;2022-07-25T01:02:16;94405.44;;;21.93;75.76
11339;BME280;5724;42.684;23.252;2022-07-25T01:04:42;94413.56;;;22.04;75.86
11339;BME280;5724;42.684;23.252;2022-07-25T01:07:07;94411.56;;;22.04;75.90
11339;BME280;5724;42.684;23.252;2022-07-25T01:09:33;94405.88;;;22.11;75.67
11339;BME280;5724;42.684;23.252;2022-07-25T01:11:58;94400.13;;;22.18;75.78
11339;BME280;5724;42.684;23.252;2022-07-25T01:14:24;94406.84;;;22.21;75.94
11339;BME280;5724;42.684;23.252;2022-07-25T01:16:49;94408.13;;;22.16;76.26
11339;BME280;5724;42.684;23.252;2022-07-25T01:19:15;94409.00;;;22.13;76.50
11339;BME280;5724;42.684;23.252;2022-07-25T01:21:40;94408.22;;;22.13;76.86
11339;BME280;5724;42.684;23.252;2022-07-25T01:24:08;94410.13;;;22.16;76.89
11339;BME280;5724;42.684;23.252;2022-07-25T01:26:33;94414.56;;;22.13;73.61
11339;BME280;5724;42.684;23.252;2022-07-25T01:28:59;94403.09;;;22.11;73.12
11339;BME280;5724;42.684;23.252;2022-07-25T01:31:24;94401.19;;;22.24;72.52
11339;BME280;5724;42.684;23.252;2022-07-25T01:33:50;94403.97;;;22.24;71.48
11339;BME280;5724;42.684;23.252;2022-07-25T01:36:16;94407.09;;;22.26;71.17
11339;BME280;5724;42.684;23.252;2022-07-25T01:38:41;94406.06;;;22.37;72.25
11339;BME280;5724;42.684;23.252;2022-07-25T01:41:07;94402.84;;;22.38;75.28
11339;BME280;5724;42.684;23.252;2022-07-25T01:43:32;94406.50;;;22.35;75.56
11339;BME280;5724;42.684;23.252;2022-07-25T01:45:58;94411.72;;;22.33;76.82
11339;BME280;5724;42.684;23.252;2022-07-25T01:48:23;94412.59;;;22.30;77.27
11339;BME280;5724;42.684;23.252;2022-07-25T01:50:49;94411.19;;;22.22;76.83
11339;BME280;5724;42.684;23.252;2022-07-25T01:53:14;94412.47;;;22.17;76.77
11339;BME280;5724;42.684;23.252;2022-07-25T01:55:40;94417.69;;;22.15;77.02
11339;BME280;5724;42.684;23.252;2022-07-25T01:58:05;94415.44;;;22.10;77.46
11339;BME280;5724;42.684;23.252;2022-07-25T02:00:31;94413.06;;;22.09;77.47
11339;BME280;5724;42.684;23.252;2022-07-25T02:02:57;94415.13;;;22.05;77.99
11339;BME280;5724;42.684;23.252;2022-07-25T02:05:41;94426.69;;;22.03;77.09
11339;BME280;5724;42.684;23.252;2022-07-25T02:08:06;94426.97;;;22.09;78.17
11339;BME280;5724;42.684;23.252;2022-07-25T02:10:32;94421.06;;;22.07;76.61
11339;BME280;5724;42.684;23.252;2022-07-25T02:12:59;94422.69;;;22.04;77.59
11339;BME280;5724;42.684;23.252;2022-07-25T02:15:24;94415.19;;;22.01;78.81
11339;BME280;5724;42.684;23.252;2022-07-25T02:17:50;94422.78;;;22.00;79.02
11339;BME280;5724;42.684;23.252;2022-07-25T02:20:15;94413.59;;;22.00;79.25
11339;BME280;5724;42.684;23.252;2022-07-25T02:22:41;94421.94;;;21.84;79.66
11339;BME280;5724;42.684;23.252;2022-07-25T02:25:07;94423.97;;;21.80;77.95
11339;BME280;5724;42.684;23.252;2022-07-25T02:27:32;94430.69;;;21.82;77.69
11339;BME280;5724;42.684;23.252;2022-07-25T02:29:58;94431.09;;;21.81;76.42
11339;BME280;5724;42.684;23.252;2022-07-25T02:32:23;94429.19;;;21.78;73.82
11339;BME280;5724;42.684;23.252;2022-07-25T02:34:49;94427.13;;;21.82;72.79
11339;BME280;5724;42.684;23.252;2022-07-25T02:37:14;94430.69;;;21.82;71.57
11339;BME280;5724;42.684;23.252;2022-07-25T02:39:40;94426.97;;;21.89;71.02
11339;BME280;5724;42.684;23.252;2022-07-25T02:42:05;94420.63;;;21.88;71.02
11339;BME280;5724;42.684;23.252;2022-07-25T02:44:31;94417.50;;;21.86;70.28
11339;BME280;5724;42.684;23.252;2022-07-25T02:46:57;94418.50;;;21.76;70.12
11339;BME280;5724;42.684;23.252;2022-07-25T02:49:22;94416.22;;;21.71;70.13
11339;BME280;5724;42.684;23.252;2022-07-25T02:51:48;94421.06;;;21.67;70.24
11339;BME280;5724;42.684;23.252;2022-07-25T02:54:13;94419.06;;;21.67;69.71
11339;BME280;5724;42.684;23.252;2022-07-25T02:56:38;94423.41;;;21.68;69.41
11339;BME280;5724;42.684;23.252;2022-07-25T02:59:04;94420.97;;;21.70;69.74
11339;BME280;5724;42.684;23.252;2022-07-25T03:01:30;94424.28;;;21.65;69.68
11339;BME280;5724;42.684;23.252;2022-07-25T03:03:55;94431.91;;;21.61;69.16
11339;BME280;5724;42.684;23.252;2022-07-25T03:06:21;94427.75;;;21.50;69.64
11339;BME280;5724;42.684;23.252;2022-07-25T03:08:47;94418.63;;;21.49;69.43
11339;BME280;5724;42.684;23.252;2022-07-25T03:11:12;94415.22;;;21.41;69.37
11339;BME280;5724;42.684;23.252;2022-07-25T03:13:38;94432.66;;;21.42;69.46
11339;BME280;5724;42.684;23.252;2022-07-25T03:16:04;94428.41;;;21.37;70.17
11339;BME280;5724;42.684;23.252;2022-07-25T03:18:30;94435.25;;;21.33;70.53
11339;BME280;5724;42.684;23.252;2022-07-25T03:20:56;94430.03;;;21.35;69.81
11339;BME280;5724;42.684;23.252;2022-07-25T03:23:21;94403.81;;;21.12;70.00
11339;BME280;5724;42.684;23.252;2022-07-25T03:25:49;94429.78;;;21.26;69.96
11339;BME280;5724;42.684;23.252;2022-07-25T03:28:14;94433.00;;;21.24;70.16
11339;BME280;5724;42.684;23.252;2022-07-25T03:30:40;94428.22;;;21.25;70.05
11339;BME280;5724;42.684;23.252;2022-07-25T03:33:05;94424.78;;;21.17;70.48
11339;BME280;5724;42.684;23.252;2022-07-25T03:35:31;94421.22;;;21.17;70.33
11339;BME280;5724;42.684;23.252;2022-07-25T03:37:56;94418.72;;;21.22;70.19
11339;BME280;5724;42.684;23.252;2022-07-25T03:40:22;94423.75;;;21.07;70.05
11339;BME280;5724;42.684;23.252;2022-07-25T03:42:47;94423.03;;;21.03;70.29
11339;BME280;5724;42.684;23.252;2022-07-25T03:45:13;94416.56;;;21.10;70.02
11339;BME280;5724;42.684;23.252;2022-07-25T03:47:38;94419.47;;;21.03;69.87
11339;BME280;5724;42.684;23.252;2022-07-25T03:50:04;94427.75;;;21.06;69.57
11339;BME280;5724;42.684;23.252;2022-07-25T03:52:30;94426.03;;;21.12;69.36
11339;BME280;5724;42.684;23.252;2022-07-25T03:54:55;94432.38;;;21.13;68.93
11339;BME280;5724;42.684;23.252;2022-07-25T03:57:21;94430.53;;;21.06;68.99
11339;BME280;5724;42.684;23.252;2022-07-25T03:59:46;94426.69;;;21.20;69.02
11339;BME280;5724;42.684;23.252;2022-07-25T04:02:12;94441.16;;;21.11;69.24
11339;BME280;5724;42.684;23.252;2022-07-25T04:04:37;94437.88;;;21.17;68.85
11339;BME280;5724;42.684;23.252;2022-07-25T04:07:03;94429.91;;;21.19;69.01
11339;BME280;5724;42.684;23.252;2022-07-25T04:09:28;94437.78;;;21.24;68.26
11339;BME280;5724;42.684;23.252;2022-07-25T04:11:54;94442.41;;;21.30;67.88
11339;BME280;5724;42.684;23.252;2022-07-25T04:14:19;94442.38;;;21.34;68.12
11339;BME280;5724;42.684;23.252;2022-07-25T04:16:44;94430.97;;;21.48;67.11
11339;BME280;5724;42.684;23.252;2022-07-25T04:19:10;94434.63;;;21.45;67.33
11339;BME280;5724;42.684;23.252;2022-07-25T04:21:35;94433.41;;;21.46;66.96
11339;BME280;5724;42.684;23.252;2022-07-25T04:24:01;94431.53;;;21.59;66.53
11339;BME280;5724;42.684;23.252;2022-07-25T04:26:26;94433.84;;;21.64;65.99
11339;BME280;5724;42.684;23.252;2022-07-25T04:28:52;94435.09;;;21.60;65.98
11339;BME280;5724;42.684;23.252;2022-07-25T04:31:18;94428.75;;;21.59;66.30
11339;BME280;5724;42.684;23.252;2022-07-25T04:33:43;94433.41;;;21.66;65.04
11339;BME280;5724;42.684;23.252;2022-07-25T04:36:09;94426.97;;;21.69;65.36
11339;BME280;5724;42.684;23.252;2022-07-25T04:38:35;94430.75;;;21.79;64.89
11339;BME280;5724;42.684;23.252;2022-07-25T04:41:00;94418.84;;;21.78;64.93
11339;BME280;5724;42.684;23.252;2022-07-25T04:43:26;94427.69;;;21.93;64.99
11339;BME280;5724;42.684;23.252;2022-07-25T04:45:52;94432.53;;;22.09;64.20
11339;BME280;5724;42.684;23.252;2022-07-25T04:48:18;94431.31;;;22.10;63.77
11339;BME280;5724;42.684;23.252;2022-07-25T04:50:43;94421.84;;;22.07;64.42
11339;BME280;5724;42.684;23.252;2022-07-25T04:53:09;94426.97;;;22.09;64.06
11339;BME280;5724;42.684;23.252;2022-07-25T04:55:35;94435.31;;;22.09;63.81
11339;BME280;5724;42.684;23.252;2022-07-25T04:58:01;94432.81;;;22.14;64.03
11339;BME280;5724;42.684;23.252;2022-07-25T05:00:26;94434.25;;;22.22;63.07
11339;BME280;5724;42.684;23.252;2022-07-25T05:02:52;94433.47;;;22.38;63.50
11339;BME280;5724;42.684;23.252;2022-07-25T05:05:18;94431.91;;;22.37;62.54
11339;BME280;5724;42.684;23.252;2022-07-25T05:07:45;94442.44;;;22.46;62.67
11339;BME280;5724;42.684;23.252;2022-07-25T05:10:10;94446.44;;;22.45;63.25
11339;BME280;5724;42.684;23.252;2022-07-25T05:12:36;94436.63;;;22.56;62.80
11339;BME280;5724;42.684;23.252;2022-07-25T05:15:03;94444.03;;;22.63;63.34
11339;BME280;5724;42.684;23.252;2022-07-25T05:17:28;94452.22;;;22.70;62.25
11339;BME280;5724;42.684;23.252;2022-07-25T05:19:54;94437.69;;;22.63;62.22
11339;BME280;5724;42.684;23.252;2022-07-25T05:22:21;94446.72;;;22.67;62.08
11339;BME280;5724;42.684;23.252;2022-07-25T05:24:46;94435.69;;;22.79;61.36
11339;BME280;5724;42.684;23.252;2022-07-25T05:27:12;94436.13;;;22.78;61.75
11339;BME280;5724;42.684;23.252;2022-07-25T05:29:38;94445.28;;;22.78;61.96
11339;BME280;5724;42.684;23.252;2022-07-25T05:32:04;94452.56;;;22.72;62.34
11339;BME280;5724;42.684;23.252;2022-07-25T05:34:29;94442.84;;;22.80;62.32
11339;BME280;5724;42.684;23.252;2022-07-25T05:36:55;94438.38;;;22.83;61.28
11339;BME280;5724;42.684;23.252;2022-07-25T05:39:20;94443.56;;;22.84;61.33
11339;BME280;5724;42.684;23.252;2022-07-25T05:41:46;94441.63;;;22.81;61.65
11339;BME280;5724;42.684;23.252;2022-07-25T05:44:11;94439.69;;;22.62;61.42
11339;BME280;5724;42.684;23.252;2022-07-25T05:46:37;94445.09;;;22.69;61.04
11339;BME280;5724;42.684;23.252;2022-07-25T05:49:02;94444.03;;;22.63;60.86
11339;BME280;5724;42.684;23.252;2022-07-25T05:51:28;94442.50;;;22.78;61.72
11339;BME280;5724;42.684;23.252;2022-07-25T05:53:53;94435.97;;;22.85;60.63
11339;BME280;5724;42.684;23.252;2022-07-25T05:56:19;94439.09;;;23.03;60.59
11339;BME280;5724;42.684;23.252;2022-07-25T05:58:45;94427.50;;;23.05;60.50
11339;BME280;5724;42.684;23.252;2022-07-25T06:01:11;94435.97;;;23.18;60.02
11339;BME280;5724;42.684;23.252;2022-07-25T06:03:38;94437.94;;;23.33;59.42
11339;BME280;5724;42.684;23.252;2022-07-25T06:06:04;94400.34;;;23.09;59.88
11339;BME280;5724;42.684;23.252;2022-07-25T06:08:29;94441.06;;;23.35;58.99
11339;BME280;5724;42.684;23.252;2022-07-25T06:10:58;94431.97;;;23.48;58.92
11339;BME280;5724;42.684;23.252;2022-07-25T06:13:25;94429.78;;;23.55;58.88
11339;BME280;5724;42.684;23.252;2022-07-25T06:15:51;94435.63;;;23.61;58.76
11339;BME280;5724;42.684;23.252;2022-07-25T06:18:17;94431.88;;;23.67;59.29
11339;BME280;5724;42.684;23.252;2022-07-25T06:20:43;94439.25;;;23.74;58.56
11339;BME280;5724;42.684;23.252;2022-07-25T06:23:08;94432.81;;;23.90;57.81
11339;BME280;5724;42.684;23.252;2022-07-25T06:25:34;94438.31;;;23.93;57.97
11339;BME280;5724;42.684;23.252;2022-07-25T06:27:59;94438.50;;;23.86;58.29
11339;BME280;5724;42.684;23.252;2022-07-25T06:30:26;94437.63;;;23.89;58.09
11339;BME280;5724;42.684;23.252;2022-07-25T06:32:51;94423.47;;;23.96;57.97
11339;BME280;5724;42.684;23.252;2022-07-25T06:35:17;94431.31;;;24.14;57.16
11339;BME280;5724;42.684;23.252;2022-07-25T06:37:42;94423.84;;;24.24;56.79
11339;BME280;5724;42.684;23.252;2022-07-25T06:40:08;94424.34;;;24.35;57.17
11339;BME280;5724;42.684;23.252;2022-07-25T06:42:39;94430.03;;;24.44;57.15
11339;BME280;5724;42.684;23.252;2022-07-25T06:45:06;94427.22;;;24.32;57.21
11339;BME280;5724;42.684;23.252;2022-07-25T06:47:34;94433.81;;;24.50;56.97
11339;BME280;5724;42.684;23.252;2022-07-25T06:49:59;94419.25;;;24.30;56.00
11339;BME280;5724;42.684;23.252;2022-07-25T06:52:24;94424.06;;;24.17;56.35
11339;BME280;5724;42.684;23.252;2022-07-25T06:54:50;94423.72;;;24.27;57.28
11339;BME280;5724;42.684;23.252;2022-07-25T06:57:15;94417.75;;;24.42;55.58
11339;BME280;5724;42.684;23.252;2022-07-25T06:59:41;94415.06;;;24.38;55.65
11339;BME280;5724;42.684;23.252;2022-07-25T07:02:06;94424.25;;;24.51;56.04
11339;BME280;5724;42.684;23.252;2022-07-25T07:04:32;94415.94;;;24.61;55.96
11339;BME280;5724;42.684;23.252;2022-07-25T07:06:58;94421.22;;;24.71;56.10
11339;BME280;5724;42.684;23.252;2022-07-25T07:09:23;94403.53;;;24.74;54.69
11339;BME280;5724;42.684;23.252;2022-07-25T07:11:49;94418.41;;;24.84;54.73
11339;BME280;5724;42.684;23.252;2022-07-25T07:14:15;94416.06;;;24.82;54.55
11339;BME280;5724;42.684;23.252;2022-07-25T07:16:40;94408.78;;;24.85;53.75
11339;BME280;5724;42.684;23.252;2022-07-25T07:19:06;94411.25;;;24.83;54.17
11339;BME280;5724;42.684;23.252;2022-07-25T07:21:35;94410.88;;;25.06;53.74
11339;BME280;5724;42.684;23.252;2022-07-25T07:24:00;94406.53;;;25.05;54.18
11339;BME280;5724;42.684;23.252;2022-07-25T07:26:26;94416.25;;;25.14;52.99
11339;BME280;5724;42.684;23.252;2022-07-25T07:28:51;94408.03;;;25.32;52.40
11339;BME280;5724;42.684;23.252;2022-07-25T07:31:18;94409.59;;;25.33;51.57
11339;BME280;5724;42.684;23.252;2022-07-25T07:33:44;94404.75;;;25.11;51.58
11339;BME280;5724;42.684;23.252;2022-07-25T07:36:10;94394.34;;;24.87;50.37
11339;BME280;5724;42.684;23.252;2022-07-25T07:38:35;94404.75;;;25.11;50.80
11339;BME280;5724;42.684;23.252;2022-07-25T07:41:01;94403.69;;;25.31;51.31
11339;BME280;5724;42.684;23.252;2022-07-25T07:43:26;94399.19;;;25.33;51.64
11339;BME280;5724;42.684;23.252;2022-07-25T07:45:53;94393.34;;;25.40;51.72
11339;BME280;5724;42.684;23.252;2022-07-25T07:48:20;94395.06;;;25.60;51.11
11339;BME280;5724;42.684;23.252;2022-07-25T07:50:45;94405.78;;;25.61;49.86
11339;BME280;5724;42.684;23.252;2022-07-25T07:53:11;94397.56;;;25.80;50.07
11339;BME280;5724;42.684;23.252;2022-07-25T07:55:36;94399.03;;;26.15;49.45
11339;BME280;5724;42.684;23.252;2022-07-25T07:58:15;94398.22;;;26.37;48.92
11339;BME280;5724;42.684;23.252;2022-07-25T08:00:42;94404.25;;;26.57;49.04
11339;BME280;5724;42.684;23.252;2022-07-25T08:03:08;94399.72;;;26.60;47.77
11339;BME280;5724;42.684;23.252;2022-07-25T08:05:39;94397.50;;;26.23;48.26
11339;BME280;5724;42.684;23.252;2022-07-25T08:08:07;94396.72;;;26.23;48.06
11339;BME280;5724;42.684;23.252;2022-07-25T08:10:35;94403.16;;;26.33;47.93
11339;BME280;5724;42.684;23.252;2022-07-25T08:13:10;94412.56;;;26.39;48.46
11339;BME280;5724;42.684;23.252;2022-07-25T08:15:37;94392.28;;;26.35;47.67
11339;BME280;5724;42.684;23.252;2022-07-25T08:18:02;94404.47;;;26.41;47.45
11339;BME280;5724;42.684;23.252;2022-07-25T08:20:29;94393.75;;;26.17;47.58
11339;BME280;5724;42.684;23.252;2022-07-25T08:22:55;94400.53;;;26.07;48.00
11339;BME280;5724;42.684;23.252;2022-07-25T08:25:20;94399.06;;;26.24;46.76
11339;BME280;5724;42.684;23.252;2022-07-25T08:27:47;94406.50;;;26.18;48.12
11339;BME280;5724;42.684;23.252;2022-07-25T08:30:14;94399.25;;;26.30;48.62
11339;BME280;5724;42.684;23.252;2022-07-25T08:35:15;94397.59;;;26.82;46.07
11339;BME280;5724;42.684;23.252;2022-07-25T08:37:41;94396.53;;;26.89;46.08
11339;BME280;5724;42.684;23.252;2022-07-25T08:40:07;94393.78;;;26.98;44.23
11339;BME280;5724;42.684;23.252;2022-07-25T08:42:34;94403.75;;;26.99;44.14
11339;BME280;5724;42.684;23.252;2022-07-25T08:45:03;94398.66;;;27.06;44.51
11339;BME280;5724;42.684;23.252;2022-07-25T08:47:29;94399.75;;;27.09;44.53
11339;BME280;5724;42.684;23.252;2022-07-25T08:49:55;94403.31;;;26.60;44.32
11339;BME280;5724;42.684;23.252;2022-07-25T08:52:21;94396.38;;;26.43;42.89
11339;BME280;5724;42.684;23.252;2022-07-25T08:54:49;94387.13;;;26.33;43.34
11339;BME280;5724;42.684;23.252;2022-07-25T08:57:15;94390.50;;;26.50;43.29
11339;BME280;5724;42.684;23.252;2022-07-25T08:59:42;94387.78;;;26.68;44.11
11339;BME280;5724;42.684;23.252;2022-07-25T09:02:12;94385.34;;;26.89;43.76
11339;BME280;5724;42.684;23.252;2022-07-25T09:04:38;94394.78;;;27.13;43.76
11339;BME280;5724;42.684;23.252;2022-07-25T09:07:03;94373.72;;;27.18;42.56
11339;BME280;5724;42.684;23.252;2022-07-25T09:09:38;94374.22;;;27.34;41.40
11339;BME280;5724;42.684;23.252;2022-07-25T09:12:04;94379.34;;;27.36;42.36
11339;BME280;5724;42.684;23.252;2022-07-25T09:14:40;94389.03;;;27.35;42.97
11339;BME280;5724;42.684;23.252;2022-07-25T09:17:06;94386.69;;;27.43;43.25
11339;BME280;5724;42.684;23.252;2022-07-25T09:19:32;94379.03;;;27.25;43.25
11339;BME280;5724;42.684;23.252;2022-07-25T09:22:03;94371.09;;;27.23;43.39
11339;BME280;5724;42.684;23.252;2022-07-25T09:24:29;94371.88;;;27.33;43.23
11339;BME280;5724;42.684;23.252;2022-07-25T09:26:58;94376.88;;;27.38;42.71
11339;BME280;5724;42.684;23.252;2022-07-25T09:29:27;94357.53;;;27.58;42.12
11339;BME280;5724;42.684;23.252;2022-07-25T09:31:54;94369.69;;;27.92;41.81
11339;BME280;5724;42.684;23.252;2022-07-25T09:34:36;94361.03;;;28.23;40.71
11339;BME280;5724;42.684;23.252;2022-07-25T09:37:06;94368.69;;;28.32;40.63
11339;BME280;5724;42.684;23.252;2022-07-25T09:39:38;94346.84;;;28.17;41.96
11339;BME280;5724;42.684;23.252;2022-07-25T09:42:36;94374.53;;;28.01;41.19
11339;BME280;5724;42.684;23.252;2022-07-25T09:45:07;94382.78;;;27.58;41.52
11339;BME280;5724;42.684;23.252;2022-07-25T09:47:36;94370.00;;;27.48;42.77
11339;BME280;5724;42.684;23.252;2022-07-25T09:50:03;94365.63;;;27.38;42.16
11339;BME280;5724;42.684;23.252;2022-07-25T09:52:29;94357.72;;;27.73;41.36
11339;BME280;5724;42.684;23.252;2022-07-25T09:54:54;94366.38;;;28.12;41.73
11339;BME280;5724;42.684;23.252;2022-07-25T09:57:21;94356.78;;;28.28;40.95
11339;BME280;5724;42.684;23.252;2022-07-25T09:59:49;94365.91;;;28.04;40.65
11339;BME280;5724;42.684;23.252;2022-07-25T10:08:06;94353.94;;;27.21;41.50
11339;BME280;5724;42.684;23.252;2022-07-25T10:10:40;94349.44;;;27.33;39.59
11339;BME280;5724;42.684;23.252;2022-07-25T10:13:07;94343.34;;;27.80;39.47
11339;BME280;5724;42.684;23.252;2022-07-25T10:15:42;94342.34;;;28.11;38.97
11339;BME280;5724;42.684;23.252;2022-07-25T10:18:08;94339.31;;;28.66;37.96
11339;BME280;5724;42.684;23.252;2022-07-25T10:20:34;94314.78;;;28.99;37.51
11339;BME280;5724;42.684;23.252;2022-07-25T10:23:00;94334.13;;;28.49;37.95
11339;BME280;5724;42.684;23.252;2022-07-25T10:25:26;94331.69;;;28.33;39.13
11339;BME280;5724;42.684;23.252;2022-07-25T10:27:58;94337.25;;;28.42;39.61
11339;BME280;5724;42.684;23.252;2022-07-25T10:30:43;94336.75;;;28.53;39.54
11339;BME280;5724;42.684;23.252;2022-07-25T10:33:13;94336.38;;;28.18;38.96
11339;BME280;5724;42.684;23.252;2022-07-25T10:35:40;94331.13;;;28.02;38.83
11339;BME280;5724;42.684;23.252;2022-07-25T10:38:06;94318.09;;;28.22;38.41
11339;BME280;5724;42.684;23.252;2022-07-25T10:40:35;94330.03;;;28.50;37.77
11339;BME280;5724;42.684;23.252;2022-07-25T10:45:51;94333.84;;;28.38;37.65
11339;BME280;5724;42.684;23.252;2022-07-25T10:48:24;94329.19;;;28.68;37.64
11339;BME280;5724;42.684;23.252;2022-07-25T10:51:02;94314.94;;;29.05;37.44
11339;BME280;5724;42.684;23.252;2022-07-25T10:53:37;94318.97;;;29.43;37.04
11339;BME280;5724;42.684;23.252;2022-07-25T10:56:09;94320.03;;;29.69;37.17
11339;BME280;5724;42.684;23.252;2022-07-25T10:58:52;94333.00;;;28.89;36.85
11339;BME280;5724;42.684;23.252;2022-07-25T11:01:30;94324.44;;;28.50;37.11
11339;BME280;5724;42.684;23.252;2022-07-25T11:04:01;94324.97;;;28.64;36.84
11339;BME280;5724;42.684;23.252;2022-07-25T11:06:38;94304.88;;;28.89;35.72
11339;BME280;5724;42.684;23.252;2022-07-25T11:09:14;94322.41;;;28.75;35.68
11339;BME280;5724;42.684;23.252;2022-07-25T11:11:43;94304.97;;;28.95;35.36
11339;BME280;5724;42.684;23.252;2022-07-25T11:14:32;94305.81;;;28.86;35.05
11339;BME280;5724;42.684;23.252;2022-07-25T11:17:19;94304.66;;;29.17;35.22
11339;BME280;5724;42.684;23.252;2022-07-25T11:20:15;94299.91;;;29.23;34.54
11339;BME280;5724;42.684;23.252;2022-07-25T11:22:40;94304.66;;;29.17;35.53
11339;BME280;5724;42.684;23.252;2022-07-25T11:25:11;94299.69;;;28.88;36.60
11339;BME280;5724;42.684;23.252;2022-07-25T11:27:38;94288.56;;;28.93;36.40
11339;BME280;5724;42.684;23.252;2022-07-25T11:30:11;94284.22;;;28.92;36.20
11339;BME280;5724;42.684;23.252;2022-07-25T11:32:44;94294.72;;;28.83;35.17
11339;BME280;5724;42.684;23.252;2022-07-25T11:35:11;94260.88;;;28.77;34.75
11339;BME280;5724;42.684;23.252;2022-07-25T11:37:40;94293.00;;;29.09;34.07
11339;BME280;5724;42.684;23.252;2022-07-25T11:40:07;94266.72;;;29.12;34.28
11339;BME280;5724;42.684;23.252;2022-07-25T11:42:44;94287.44;;;29.00;34.33
11339;BME280;5724;42.684;23.252;2022-07-25T11:45:19;94286.78;;;29.05;34.92
11339;BME280;5724;42.684;23.252;2022-07-25T11:48:00;94277.03;;;29.15;35.19
11339;BME280;5724;42.684;23.252;2022-07-25T11:50:30;94269.44;;;29.21;35.44
11339;BME280;5724;42.684;23.252;2022-07-25T11:53:14;94272.06;;;28.86;36.48
11339;BME280;5724;42.684;23.252;2022-07-25T11:55:42;94260.66;;;27.90;38.08
11339;BME280;5724;42.684;23.252;2022-07-25T11:58:09;94285.31;;;27.77;39.24
11339;BME280;5724;42.684;23.252;2022-07-25T12:00:40;94273.31;;;27.77;39.27
11339;BME280;5724;42.684;23.252;2022-07-25T12:03:08;94271.72;;;27.85;38.46
11339;BME280;5724;42.684;23.252;2022-07-25T12:05:34;94275.19;;;27.80;38.73
11339;BME280;5724;42.684;23.252;2022-07-25T12:08:13;94274.16;;;28.10;38.20
11339;BME280;5724;42.684;23.252;2022-07-25T12:10:40;94267.00;;;28.42;37.59
11339;BME280;5724;42.684;23.252;2022-07-25T12:13:06;94253.75;;;28.67;37.42
11339;BME280;5724;42.684;23.252;2022-07-25T12:15:39;94253.56;;;28.94;37.53
11339;BME280;5724;42.684;23.252;2022-07-25T12:18:06;94266.72;;;28.88;35.90
11339;BME280;5724;42.684;23.252;2022-07-25T12:20:43;94255.31;;;28.35;36.59
11339;BME280;5724;42.684;23.252;2022-07-25T12:23:10;94220.19;;;28.63;37.08
11339;BME280;5724;42.684;23.252;2022-07-25T12:25:38;94246.09;;;28.91;36.15
11339;BME280;5724;42.684;23.252;2022-07-25T12:28:04;94243.31;;;28.82;37.43
11339;BME280;5724;42.684;23.252;2022-07-25T12:30:31;94249.00;;;28.73;36.74
11339;BME280;5724;42.684;23.252;2022-07-25T12:32:58;94243.13;;;29.10;36.85
11339;BME280;5724;42.684;23.252;2022-07-25T12:35:24;94252.97;;;29.29;36.37
11339;BME280;5724;42.684;23.252;2022-07-25T12:37:50;94243.66;;;29.38;36.82
11339;BME280;5724;42.684;23.252;2022-07-25T12:40:17;94239.44;;;29.72;36.42
11339;BME280;5724;42.684;23.252;2022-07-25T12:42:43;94231.88;;;29.92;36.14
11339;BME280;5724;42.684;23.252;2022-07-25T12:45:09;94230.09;;;29.80;36.45
11339;BME280;5724;42.684;23.252;2022-07-25T12:47:35;94221.59;;;29.75;35.91
11339;BME280;5724;42.684;23.252;2022-07-25T12:50:01;94224.31;;;29.54;36.30
11339;BME280;5724;42.684;23.252;2022-07-25T12:52:26;94235.56;;;29.84;35.86
11339;BME280;5724;42.684;23.252;2022-07-25T12:54:52;94216.22;;;29.47;36.29
11339;BME280;5724;42.684;23.252;2022-07-25T12:57:18;94234.88;;;29.74;36.58
11339;BME280;5724;42.684;23.252;2022-07-25T12:59:45;94237.50;;;29.48;36.77
11339;BME280;5724;42.684;23.252;2022-07-25T13:02:11;94215.41;;;29.32;36.96
11339;BME280;5724;42.684;23.252;2022-07-25T13:04:37;94223.53;;;29.00;37.31
11339;BME280;5724;42.684;23.252;2022-07-25T13:07:02;94221.00;;;28.78;37.37
11339;BME280;5724;42.684;23.252;2022-07-25T13:09:28;94212.22;;;28.86;37.37
11339;BME280;5724;42.684;23.252;2022-07-25T13:11:55;94208.13;;;29.11;37.16